sensor_id;sensor_type;location;lat;lon;timestamp;pressure;altitude;pressure_sealevel;temperature;humidity
31681;BME280;18281;51.364;9.566;2023-05-21T00:02:02;100112.97;;;9.93;100.00
31681;BME280;18281;51.364;9.566;2023-05-21T00:04:34;100116.13;;;9.99;100.00
31681;BME280;18281;51.364;9.566;2023-05-21T00:06:59;100113.25;;;10.04;100.00
31681;BME280;18281;51.364;9.566;2023-05-21T00:09:25;100100.00;;;10.07;100.00
31681;BME280;18281;51.364;9.566;2023-05-21T00:11:50;100103.63;;;10.04;100.00
31681;BME280;18281;51.364;9.566;2023-05-21T00:14:15;100104.47;;;10.05;100.00
31681;BME280;18281;51.364;9.566;2023-05-21T00:16:41;100105.31;;;9.88;100.00
31681;BME280;18281;51.364;9.566;2023-05-21T00:19:06;100102.16;;;9.81;100.00
31681;BME280;18281;51.364;9.566;2023-05-21T00:21:32;100096.63;;;9.70;100.00
31681;BME280;18281;51.364;9.566;2023-05-21T00:23:57;100096.22;;;9.60;100.00
31681;BME280;18281;51.364;9.566;2023-05-21T00:26:23;100089.94;;;9.82;100.00
31681;BME280;18281;51.364;9.566;2023-05-21T00:28:49;100092.38;;;9.85;100.00
31681;BME280;18281;51.364;9.566;2023-05-21T00:31:14;100086.44;;;9.81;100.00
31681;BME280;18281;51.364;9.566;2023-05-21T00:33:41;100080.34;;;9.81;100.00
31681;BME280;18281;51.364;9.566;2023-05-21T00:36:07;100077.72;;;9.81;100.00
31681;BME280;18281;51.364;9.566;2023-05-21T00:38:33;100082.81;;;9.66;100.00
31681;BME280;18281;51.364;9.566;2023-05-21T00:41:02;100077.91;;;9.78;100.00
31681;BME280;18281;51.364;9.566;2023-05-21T00:43:27;100071.88;;;9.75;100.00
31681;BME280;18281;51.364;9.566;2023-05-21T00:45:53;100068.97;;;9.64;100.00
31681;BME280;18281;51.364;9.566;2023-05-21T00:48:20;100066.44;;;9.61;100.00
31681;BME280;18281;51.364;9.566;2023-05-21T00:50:46;100061.84;;;9.66;100.00
31681;BME280;18281;51.364;9.566;2023-05-21T00:53:14;100074.31;;;9.61;100.00
31681;BME280;18281;51.364;9.566;2023-05-21T00:55:42;100070.94;;;9.59;100.00
31681;BME280;18281;51.364;9.566;2023-05-21T00:58:07;100060.59;;;9.56;100.00
31681;BME280;18281;51.364;9.566;2023-05-21T01:00:34;100069.63;;;9.50;100.00
31681;BME280;18281;51.364;9.566;2023-05-21T01:03:00;100058.22;;;9.51;100.00
31681;BME280;18281;51.364;9.566;2023-05-21T01:05:29;100057.97;;;9.38;100.00
31681;BME280;18281;51.364;9.566;2023-05-21T01:07:55;100061.66;;;9.52;100.00
31681;BME280;18281;51.364;9.566;2023-05-21T01:10:23;100062.63;;;9.51;100.00
31681;BME280;18281;51.364;9.566;2023-05-21T01:12:50;100052.50;;;9.43;100.00
31681;BME280;18281;51.364;9.566;2023-05-21T01:15:16;100051.66;;;9.42;100.00
31681;BME280;18281;51.364;9.566;2023-05-21T01:17:42;100054.06;;;9.47;100.00
31681;BME280;18281;51.364;9.566;2023-05-21T01:20:10;100047.72;;;9.51;100.00
31681;BME280;18281;51.364;9.566;2023-05-21T01:23:08;100045.94;;;9.52;100.00
31681;BME280;18281;51.364;9.566;2023-05-21T01:25:34;100048.34;;;9.39;100.00
31681;BME280;18281;51.364;9.566;2023-05-21T01:27:59;100043.56;;;9.47;100.00
31681;BME280;18281;51.364;9.566;2023-05-21T01:30:25;100040.41;;;9.40;100.00
31681;BME280;18281;51.364;9.566;2023-05-21T01:33:03;100023.81;;;9.22;100.00
31681;BME280;18281;51.364;9.566;2023-05-21T01:35:38;100029.84;;;9.24;100.00
31681;BME280;18281;51.364;9.566;2023-05-21T01:43:05;100028.47;;;9.17;100.00
31681;BME280;18281;51.364;9.566;2023-05-21T01:45:31;100030.31;;;9.15;100.00
31681;BME280;18281;51.364;9.566;2023-05-21T01:47:57;100030.13;;;9.18;100.00
31681;BME280;18281;51.364;9.566;2023-05-21T01:50:24;100021.06;;;9.25;100.00
31681;BME280;18281;51.364;9.566;2023-05-21T01:52:54;100022.22;;;9.20;100.00
31681;BME280;18281;51.364;9.566;2023-05-21T01:55:25;100031.84;;;9.19;100.00
31681;BME280;18281;51.364;9.566;2023-05-21T01:57:55;100028.59;;;9.32;100.00
31681;BME280;18281;51.364;9.566;2023-05-21T02:00:21;100031.22;;;9.14;100.00
31681;BME280;18281;51.364;9.566;2023-05-21T02:02:48;100026.38;;;9.06;100.00
31681;BME280;18281;51.364;9.566;2023-05-21T02:05:14;100032.91;;;9.15;100.00
31681;BME280;18281;51.364;9.566;2023-05-21T02:07:39;100031.69;;;9.22;100.00
31681;BME280;18281;51.364;9.566;2023-05-21T02:10:05;100031.00;;;9.19;100.00
31681;BME280;18281;51.364;9.566;2023-05-21T02:12:31;100028.22;;;9.22;100.00
31681;BME280;18281;51.364;9.566;2023-05-21T02:14:57;100025.38;;;9.27;100.00
31681;BME280;18281;51.364;9.566;2023-05-21T02:17:22;100029.94;;;9.23;100.00
31681;BME280;18281;51.364;9.566;2023-05-21T02:19:54;100026.94;;;9.13;100.00
31681;BME280;18281;51.364;9.566;2023-05-21T02:22:19;100022.72;;;9.09;100.00
31681;BME280;18281;51.364;9.566;2023-05-21T02:24:45;100016.91;;;9.04;100.00
31681;BME280;18281;51.364;9.566;2023-05-21T02:27:11;100016.75;;;9.07;100.00
31681;BME280;18281;51.364;9.566;2023-05-21T02:29:37;100016.13;;;9.02;100.00
31681;BME280;18281;51.364;9.566;2023-05-21T02:32:03;100007.88;;;9.10;100.00
31681;BME280;18281;51.364;9.566;2023-05-21T02:34:28;100007.19;;;9.23;100.00
31681;BME280;18281;51.364;9.566;2023-05-21T02:36:56;100012.59;;;9.20;100.00
31681;BME280;18281;51.364;9.566;2023-05-21T02:39:23;100019.19;;;9.28;100.00
31681;BME280;18281;51.364;9.566;2023-05-21T02:41:48;100019.13;;;9.29;100.00
31681;BME280;18281;51.364;9.566;2023-05-21T02:44:13;100012.44;;;9.23;100.00
31681;BME280;18281;51.364;9.566;2023-05-21T02:46:39;100024.44;;;9.28;100.00
31681;BME280;18281;51.364;9.566;2023-05-21T02:49:05;100020.06;;;9.28;100.00
31681;BME280;18281;51.364;9.566;2023-05-21T02:51:30;100023.38;;;9.32;100.00
31681;BME280;18281;51.364;9.566;2023-05-21T02:53:55;100023.22;;;9.35;100.00
31681;BME280;18281;51.364;9.566;2023-05-21T02:56:21;100018.00;;;9.35;100.00
31681;BME280;18281;51.364;9.566;2023-05-21T02:58:46;100021.59;;;9.32;100.00
31681;BME280;18281;51.364;9.566;2023-05-21T03:01:11;100025.44;;;9.25;100.00
31681;BME280;18281;51.364;9.566;2023-05-21T03:03:37;100019.19;;;9.28;100.00
31681;BME280;18281;51.364;9.566;2023-05-21T03:06:02;100018.28;;;9.29;100.00
31681;BME280;18281;51.364;9.566;2023-05-21T03:08:28;100012.84;;;9.33;100.00
31681;BME280;18281;51.364;9.566;2023-05-21T03:10:53;100013.88;;;9.29;100.00
31681;BME280;18281;51.364;9.566;2023-05-21T03:13:19;100018.13;;;9.32;100.00
31681;BME280;18281;51.364;9.566;2023-05-21T03:15:45;100017.28;;;9.31;100.00
31681;BME280;18281;51.364;9.566;2023-05-21T03:18:10;100017.03;;;9.36;100.00
31681;BME280;18281;51.364;9.566;2023-05-21T03:20:37;100015.84;;;9.25;100.00
31681;BME280;18281;51.364;9.566;2023-05-21T03:23:08;100011.22;;;9.31;100.00
31681;BME280;18281;51.364;9.566;2023-05-21T03:25:33;100019.38;;;9.24;100.00
31681;BME280;18281;51.364;9.566;2023-05-21T03:28:00;100022.59;;;9.30;100.00
31681;BME280;18281;51.364;9.566;2023-05-21T03:30:26;100022.16;;;9.39;100.00
31681;BME280;18281;51.364;9.566;2023-05-21T03:32:51;100016.91;;;9.39;100.00
31681;BME280;18281;51.364;9.566;2023-05-21T03:35:16;100014.59;;;9.33;100.00
31681;BME280;18281;51.364;9.566;2023-05-21T03:37:42;100015.22;;;9.38;100.00
31681;BME280;18281;51.364;9.566;2023-05-21T03:40:07;100019.13;;;9.29;100.00
31681;BME280;18281;51.364;9.566;2023-05-21T03:42:33;100020.59;;;9.35;100.00
31681;BME280;18281;51.364;9.566;2023-05-21T03:44:58;100020.38;;;9.39;100.00
31681;BME280;18281;51.364;9.566;2023-05-21T03:47:24;100025.59;;;9.22;100.00
31681;BME280;18281;51.364;9.566;2023-05-21T03:49:49;100027.84;;;9.30;100.00
31681;BME280;18281;51.364;9.566;2023-05-21T03:52:14;100021.28;;;9.38;100.00
31681;BME280;18281;51.364;9.566;2023-05-21T03:54:40;100020.16;;;9.44;100.00
31681;BME280;18281;51.364;9.566;2023-05-21T03:57:05;100018.59;;;9.40;100.00
31681;BME280;18281;51.364;9.566;2023-05-21T03:59:30;100022.69;;;9.46;100.00
31681;BME280;18281;51.364;9.566;2023-05-21T04:01:56;100014.66;;;9.49;100.00
31681;BME280;18281;51.364;9.566;2023-05-21T04:04:21;100021.22;;;9.57;100.00
31681;BME280;18281;51.364;9.566;2023-05-21T04:06:46;100013.94;;;9.63;100.00
31681;BME280;18281;51.364;9.566;2023-05-21T04:09:12;100019.34;;;9.59;100.00
31681;BME280;18281;51.364;9.566;2023-05-21T04:11:37;100014.84;;;9.63;100.00
31681;BME280;18281;51.364;9.566;2023-05-21T04:14:03;100014.88;;;9.62;100.00
31681;BME280;18281;51.364;9.566;2023-05-21T04:16:28;100019.34;;;9.59;100.00
31681;BME280;18281;51.364;9.566;2023-05-21T04:18:54;100016.72;;;9.59;100.00
31681;BME280;18281;51.364;9.566;2023-05-21T04:21:19;100014.44;;;9.71;100.00
31681;BME280;18281;51.364;9.566;2023-05-21T04:23:45;100014.19;;;9.75;100.00
31681;BME280;18281;51.364;9.566;2023-05-21T04:26:10;100016.91;;;9.74;100.00
31681;BME280;18281;51.364;9.566;2023-05-21T04:28:36;100019.16;;;9.64;100.00
31681;BME280;18281;51.364;9.566;2023-05-21T04:31:06;100021.31;;;9.73;100.00
31681;BME280;18281;51.364;9.566;2023-05-21T04:33:32;100020.56;;;9.87;100.00
31681;BME280;18281;51.364;9.566;2023-05-21T04:35:59;100020.13;;;9.79;100.00
31681;BME280;18281;51.364;9.566;2023-05-21T04:38:25;100020.56;;;9.87;100.00
31681;BME280;18281;51.364;9.566;2023-05-21T04:40:51;100014.56;;;9.85;100.00
31681;BME280;18281;51.364;9.566;2023-05-21T04:43:17;100015.41;;;9.86;100.00
31681;BME280;18281;51.364;9.566;2023-05-21T04:45:43;100011.09;;;9.85;100.00
31681;BME280;18281;51.364;9.566;2023-05-21T04:48:08;100009.25;;;9.87;100.00
31681;BME280;18281;51.364;9.566;2023-05-21T04:50:34;100014.25;;;9.91;100.00
31681;BME280;18281;51.364;9.566;2023-05-21T04:52:59;100017.66;;;9.94;100.00
31681;BME280;18281;51.364;9.566;2023-05-21T04:55:25;100017.31;;;10.00;100.00
31681;BME280;18281;51.364;9.566;2023-05-21T04:57:51;100017.31;;;10.00;100.00
31681;BME280;18281;51.364;9.566;2023-05-21T05:00:17;100012.06;;;10.00;100.00
31681;BME280;18281;51.364;9.566;2023-05-21T05:02:42;100014.69;;;10.00;100.00
31681;BME280;18281;51.364;9.566;2023-05-21T05:05:08;100007.31;;;10.06;100.00
31681;BME280;18281;51.364;9.566;2023-05-21T05:07:33;99998.03;;;10.17;100.00
31681;BME280;18281;51.364;9.566;2023-05-21T05:09:59;100002.00;;;10.08;100.00
31681;BME280;18281;51.364;9.566;2023-05-21T05:12:25;100002.28;;;10.19;100.00
31681;BME280;18281;51.364;9.566;2023-05-21T05:14:50;100007.16;;;10.25;100.00
31681;BME280;18281;51.364;9.566;2023-05-21T05:17:15;100001.69;;;10.46;100.00
31681;BME280;18281;51.364;9.566;2023-05-21T05:19:41;100005.34;;;10.59;100.00
31681;BME280;18281;51.364;9.566;2023-05-21T05:22:06;100004.03;;;10.67;100.00
31681;BME280;18281;51.364;9.566;2023-05-21T05:24:32;100001.00;;;10.74;100.00
31681;BME280;18281;51.364;9.566;2023-05-21T05:26:57;100005.47;;;10.88;100.00
31681;BME280;18281;51.364;9.566;2023-05-21T05:29:23;100001.81;;;11.07;100.00
31681;BME280;18281;51.364;9.566;2023-05-21T05:31:48;100006.91;;;11.24;100.00
31681;BME280;18281;51.364;9.566;2023-05-21T05:34:13;100011.00;;;11.30;100.00
31681;BME280;18281;51.364;9.566;2023-05-21T05:36:39;100003.69;;;11.50;100.00
31681;BME280;18281;51.364;9.566;2023-05-21T05:39:04;99999.94;;;11.54;100.00
31681;BME280;18281;51.364;9.566;2023-05-21T05:41:30;100005.19;;;11.54;100.00
31681;BME280;18281;51.364;9.566;2023-05-21T05:43:55;99999.50;;;11.62;100.00
31681;BME280;18281;51.364;9.566;2023-05-21T05:46:20;99998.47;;;11.64;100.00
31681;BME280;18281;51.364;9.566;2023-05-21T05:48:46;99998.16;;;11.69;100.00
31681;BME280;18281;51.364;9.566;2023-05-21T05:51:11;100003.25;;;11.72;100.00
31681;BME280;18281;51.364;9.566;2023-05-21T05:53:37;99989.09;;;11.74;100.00
31681;BME280;18281;51.364;9.566;2023-05-21T05:56:02;99996.69;;;11.79;100.00
31681;BME280;18281;51.364;9.566;2023-05-21T05:58:28;99995.75;;;11.80;100.00
31681;BME280;18281;51.364;9.566;2023-05-21T06:00:54;100004.13;;;11.87;100.00
31681;BME280;18281;51.364;9.566;2023-05-21T06:03:20;100001.94;;;11.79;100.00
31681;BME280;18281;51.364;9.566;2023-05-21T06:05:45;100007.44;;;11.90;100.00
31681;BME280;18281;51.364;9.566;2023-05-21T06:08:11;99999.16;;;11.97;100.00
31681;BME280;18281;51.364;9.566;2023-05-21T06:10:36;99999.06;;;11.98;100.00
31681;BME280;18281;51.364;9.566;2023-05-21T06:13:01;99994.09;;;12.08;100.00
31681;BME280;18281;51.364;9.566;2023-05-21T06:15:27;99992.59;;;12.04;100.00
31681;BME280;18281;51.364;9.566;2023-05-21T06:17:52;99993.22;;;12.07;100.00
31681;BME280;18281;51.364;9.566;2023-05-21T06:20:17;99992.84;;;12.14;100.00
31681;BME280;18281;51.364;9.566;2023-05-21T06:22:43;99994.25;;;12.19;100.00
31681;BME280;18281;51.364;9.566;2023-05-21T06:25:08;99994.56;;;12.15;100.00
31681;BME280;18281;51.364;9.566;2023-05-21T06:27:36;100002.16;;;12.19;100.00
31681;BME280;18281;51.364;9.566;2023-05-21T06:30:02;99999.13;;;12.25;100.00
31681;BME280;18281;51.364;9.566;2023-05-21T06:32:27;100001.88;;;12.24;100.00
31681;BME280;18281;51.364;9.566;2023-05-21T06:34:53;100003.38;;;12.28;100.00
31681;BME280;18281;51.364;9.566;2023-05-21T06:37:19;99994.44;;;12.31;100.00
31681;BME280;18281;51.364;9.566;2023-05-21T06:39:45;99995.38;;;12.30;100.00
31681;BME280;18281;51.364;9.566;2023-05-21T06:42:10;100000.06;;;12.39;100.00
31681;BME280;18281;51.364;9.566;2023-05-21T06:44:36;99999.84;;;12.42;100.00
31681;BME280;18281;51.364;9.566;2023-05-21T06:47:01;100008.31;;;12.47;100.00
31681;BME280;18281;51.364;9.566;2023-05-21T06:49:26;100003.28;;;12.57;100.00
31681;BME280;18281;51.364;9.566;2023-05-21T06:51:52;99996.97;;;12.59;100.00
31681;BME280;18281;51.364;9.566;2023-05-21T06:54:17;99999.78;;;12.71;100.00
31681;BME280;18281;51.364;9.566;2023-05-21T06:56:42;99995.13;;;12.74;100.00
31681;BME280;18281;51.364;9.566;2023-05-21T06:59:08;99995.69;;;12.80;100.00
31681;BME280;18281;51.364;9.566;2023-05-21T07:01:33;99993.22;;;12.91;100.00
31681;BME280;18281;51.364;9.566;2023-05-21T07:03:58;100000.94;;;13.07;100.00
31681;BME280;18281;51.364;9.566;2023-05-21T07:06:24;99991.22;;;12.95;100.00
31681;BME280;18281;51.364;9.566;2023-05-21T07:08:49;99999.84;;;13.11;100.00
31681;BME280;18281;51.364;9.566;2023-05-21T07:11:15;100001.72;;;13.09;100.00
31681;BME280;18281;51.364;9.566;2023-05-21T07:13:40;99995.19;;;13.15;100.00
31681;BME280;18281;51.364;9.566;2023-05-21T07:16:06;99990.34;;;13.21;100.00
31681;BME280;18281;51.364;9.566;2023-05-21T07:18:31;99994.34;;;13.27;100.00
31681;BME280;18281;51.364;9.566;2023-05-21T07:20:56;99990.34;;;13.21;100.00
31681;BME280;18281;51.364;9.566;2023-05-21T07:23:22;99992.34;;;13.31;100.00
31681;BME280;18281;51.364;9.566;2023-05-21T07:25:48;99995.75;;;13.33;100.00
31681;BME280;18281;51.364;9.566;2023-05-21T07:28:13;99999.97;;;13.35;100.00
31681;BME280;18281;51.364;9.566;2023-05-21T07:30:38;99993.84;;;13.35;100.00
31681;BME280;18281;51.364;9.566;2023-05-21T07:33:04;99988.06;;;13.42;100.00
31681;BME280;18281;51.364;9.566;2023-05-21T07:35:29;99982.88;;;13.41;100.00
31681;BME280;18281;51.364;9.566;2023-05-21T07:37:55;99985.53;;;13.54;100.00
31681;BME280;18281;51.364;9.566;2023-05-21T07:40:20;99981.53;;;13.61;100.00
31681;BME280;18281;51.364;9.566;2023-05-21T07:42:46;99974.78;;;13.57;100.00
31681;BME280;18281;51.364;9.566;2023-05-21T07:45:11;99972.22;;;13.68;100.00
31681;BME280;18281;51.364;9.566;2023-05-21T07:47:36;99970.31;;;13.83;100.00
31681;BME280;18281;51.364;9.566;2023-05-21T07:50:02;99965.16;;;13.95;100.00
31681;BME280;18281;51.364;9.566;2023-05-21T07:52:27;99966.63;;;13.99;100.00
31681;BME280;18281;51.364;9.566;2023-05-21T07:54:53;99967.22;;;14.15;100.00
31681;BME280;18281;51.364;9.566;2023-05-21T07:57:18;99964.91;;;14.11;100.00
31681;BME280;18281;51.364;9.566;2023-05-21T07:59:43;99968.28;;;14.13;100.00
31681;BME280;18281;51.364;9.566;2023-05-21T08:02:09;99968.28;;;14.13;100.00
31681;BME280;18281;51.364;9.566;2023-05-21T08:04:34;99969.28;;;14.36;100.00
31681;BME280;18281;51.364;9.566;2023-05-21T08:07:00;99968.22;;;14.38;100.00
31681;BME280;18281;51.364;9.566;2023-05-21T08:09:25;99969.84;;;14.52;100.00
31681;BME280;18281;51.364;9.566;2023-05-21T08:11:50;99971.03;;;14.48;100.00
31681;BME280;18281;51.364;9.566;2023-05-21T08:14:16;99976.47;;;14.58;100.00
31681;BME280;18281;51.364;9.566;2023-05-21T08:16:41;99975.53;;;14.59;100.00
31681;BME280;18281;51.364;9.566;2023-05-21T08:19:07;99965.91;;;14.58;100.00
31681;BME280;18281;51.364;9.566;2023-05-21T08:21:32;99974.28;;;14.76;100.00
31681;BME280;18281;51.364;9.566;2023-05-21T08:23:58;99968.44;;;14.84;100.00
31681;BME280;18281;51.364;9.566;2023-05-21T08:26:24;99972.66;;;14.86;100.00
31681;BME280;18281;51.364;9.566;2023-05-21T08:28:50;99971.41;;;14.79;100.00
31681;BME280;18281;51.364;9.566;2023-05-21T08:31:17;99971.84;;;14.86;100.00
31681;BME280;18281;51.364;9.566;2023-05-21T08:33:49;99972.66;;;14.86;100.00
31681;BME280;18281;51.364;9.566;2023-05-21T08:36:16;99960.06;;;14.90;100.00
31681;BME280;18281;51.364;9.566;2023-05-21T08:38:41;99965.03;;;14.95;100.00
31681;BME280;18281;51.364;9.566;2023-05-21T08:41:07;99968.38;;;14.97;100.00
31681;BME280;18281;51.364;9.566;2023-05-21T08:43:33;99959.31;;;15.12;100.00
31681;BME280;18281;51.364;9.566;2023-05-21T08:46:02;99968.81;;;15.15;100.00
31681;BME280;18281;51.364;9.566;2023-05-21T08:48:29;99969.91;;;15.23;100.00
31681;BME280;18281;51.364;9.566;2023-05-21T08:50:57;99964.53;;;15.36;100.00
31681;BME280;18281;51.364;9.566;2023-05-21T08:53:23;99969.84;;;15.48;100.00
31681;BME280;18281;51.364;9.566;2023-05-21T08:55:51;99962.97;;;15.45;100.00
31681;BME280;18281;51.364;9.566;2023-05-21T08:58:18;99955.78;;;15.47;100.00
31681;BME280;18281;51.364;9.566;2023-05-21T09:00:43;99959.63;;;15.54;100.00
31681;BME280;18281;51.364;9.566;2023-05-21T09:03:09;99963.50;;;15.62;100.00
31681;BME280;18281;51.364;9.566;2023-05-21T09:05:40;99955.81;;;15.70;100.00
31681;BME280;18281;51.364;9.566;2023-05-21T09:08:11;99956.25;;;15.52;100.00
31681;BME280;18281;51.364;9.566;2023-05-21T09:10:40;99951.72;;;15.77;100.00
31681;BME280;18281;51.364;9.566;2023-05-21T09:13:07;99945.09;;;15.71;100.00
31681;BME280;18281;51.364;9.566;2023-05-21T09:15:33;99963.13;;;15.77;100.00
31681;BME280;18281;51.364;9.566;2023-05-21T09:17:59;99949.91;;;15.89;100.00
31681;BME280;18281;51.364;9.566;2023-05-21T09:20:25;99948.59;;;15.95;100.00
31681;BME280;18281;51.364;9.566;2023-05-21T09:22:52;99948.69;;;16.04;100.00
31681;BME280;18281;51.364;9.566;2023-05-21T09:25:22;99949.53;;;16.05;100.00
31681;BME280;18281;51.364;9.566;2023-05-21T09:27:47;99954.13;;;15.91;100.00
31681;BME280;18281;51.364;9.566;2023-05-21T09:30:15;99961.69;;;15.96;100.00
31681;BME280;18281;51.364;9.566;2023-05-21T09:32:42;99959.41;;;16.03;100.00
31681;BME280;18281;51.364;9.566;2023-05-21T09:35:12;99956.91;;;15.90;100.00
31681;BME280;18281;51.364;9.566;2023-05-21T09:37:42;99959.19;;;15.83;100.00
31681;BME280;18281;51.364;9.566;2023-05-21T09:40:19;99967.38;;;15.91;100.00
31681;BME280;18281;51.364;9.566;2023-05-21T09:42:52;99967.94;;;16.06;100.00
31681;BME280;18281;51.364;9.566;2023-05-21T09:45:25;99961.09;;;16.15;100.00
31681;BME280;18281;51.364;9.566;2023-05-21T09:47:53;99957.22;;;16.19;100.00
31681;BME280;18281;51.364;9.566;2023-05-21T09:50:23;99947.94;;;16.14;100.00
31681;BME280;18281;51.364;9.566;2023-05-21T09:52:49;99963.84;;;16.14;100.00
31681;BME280;18281;51.364;9.566;2023-05-21T09:55:17;99962.53;;;16.19;100.00
31681;BME280;18281;51.364;9.566;2023-05-21T09:57:44;99964.19;;;16.20;100.00
31681;BME280;18281;51.364;9.566;2023-05-21T10:00:26;99951.75;;;16.32;100.00
31681;BME280;18281;51.364;9.566;2023-05-21T10:02:57;99956.94;;;16.34;100.00
31681;BME280;18281;51.364;9.566;2023-05-21T10:05:26;99948.75;;;16.37;100.00
31681;BME280;18281;51.364;9.566;2023-05-21T10:07:58;99948.63;;;16.38;100.00
31681;BME280;18281;51.364;9.566;2023-05-21T10:10:24;99938.84;;;16.50;100.00
31681;BME280;18281;51.364;9.566;2023-05-21T10:13:00;99943.91;;;16.53;100.00
31681;BME280;18281;51.364;9.566;2023-05-21T10:15:31;99940.91;;;16.58;100.00
31681;BME280;18281;51.364;9.566;2023-05-21T10:18:00;99947.50;;;16.64;100.00
31681;BME280;18281;51.364;9.566;2023-05-21T10:20:26;99939.28;;;16.67;100.00
31681;BME280;18281;51.364;9.566;2023-05-21T10:22:52;99933.22;;;16.76;100.00
31681;BME280;18281;51.364;9.566;2023-05-21T10:25:17;99928.50;;;16.80;100.00
31681;BME280;18281;51.364;9.566;2023-05-21T10:27:44;99932.25;;;16.77;100.00
31681;BME280;18281;51.364;9.566;2023-05-21T10:30:11;99926.44;;;16.83;100.00
31681;BME280;18281;51.364;9.566;2023-05-21T10:32:38;99933.25;;;16.97;100.00
31681;BME280;18281;51.364;9.566;2023-05-21T10:35:05;99937.13;;;16.93;100.00
31681;BME280;18281;51.364;9.566;2023-05-21T10:37:31;99937.19;;;17.03;100.00
31681;BME280;18281;51.364;9.566;2023-05-21T10:39:56;99942.09;;;17.07;100.00
31681;BME280;18281;51.364;9.566;2023-05-21T10:47:52;99919.13;;;17.18;100.00
31681;BME280;18281;51.364;9.566;2023-05-21T10:53:07;99923.03;;;17.35;100.00
31681;BME280;18281;51.364;9.566;2023-05-21T11:01:18;99915.59;;;17.59;100.00
31681;BME280;18281;51.364;9.566;2023-05-21T11:03:45;99921.44;;;17.53;100.00
31681;BME280;18281;51.364;9.566;2023-05-21T11:06:22;99918.41;;;17.68;100.00
31681;BME280;18281;51.364;9.566;2023-05-21T11:08:49;99913.81;;;17.70;100.00
31681;BME280;18281;51.364;9.566;2023-05-21T11:16:56;99903.66;;;17.85;100.00
31681;BME280;18281;51.364;9.566;2023-05-21T11:19:31;99904.69;;;17.93;100.00
31681;BME280;18281;51.364;9.566;2023-05-21T11:21:58;99903.88;;;18.03;100.00
31681;BME280;18281;51.364;9.566;2023-05-21T11:29:16;99897.06;;;18.20;100.00
31681;BME280;18281;51.364;9.566;2023-05-21T11:31:46;99894.56;;;18.38;100.00
31681;BME280;18281;51.364;9.566;2023-05-21T11:34:20;99897.22;;;18.38;100.00
31681;BME280;18281;51.364;9.566;2023-05-21T11:36:47;99893.31;;;18.42;100.00
31681;BME280;18281;51.364;9.566;2023-05-21T11:39:16;99886.44;;;18.49;100.00
31681;BME280;18281;51.364;9.566;2023-05-21T11:42:01;99884.06;;;18.56;100.00
31681;BME280;18281;51.364;9.566;2023-05-21T11:44:46;99881.53;;;18.74;100.00
31681;BME280;18281;51.364;9.566;2023-05-21T11:47:16;99879.31;;;18.89;100.00
31681;BME280;18281;51.364;9.566;2023-05-21T11:49:43;99873.69;;;18.82;100.00
31681;BME280;18281;51.364;9.566;2023-05-21T11:52:09;99881.09;;;18.88;100.00
31681;BME280;18281;51.364;9.566;2023-05-21T11:54:41;99878.28;;;18.80;100.00
31681;BME280;18281;51.364;9.566;2023-05-21T11:57:08;99877.88;;;18.95;100.00
31681;BME280;18281;51.364;9.566;2023-05-21T11:59:34;99874.38;;;19.04;100.00
31681;BME280;18281;51.364;9.566;2023-05-21T12:02:00;99877.69;;;19.16;100.00
31681;BME280;18281;51.364;9.566;2023-05-21T12:04:32;99868.44;;;19.20;100.00
31681;BME280;18281;51.364;9.566;2023-05-21T12:07:05;99875.97;;;19.34;100.00
31681;BME280;18281;51.364;9.566;2023-05-21T12:09:41;99866.28;;;19.33;99.09
31681;BME280;18281;51.364;9.566;2023-05-21T12:12:14;99867.56;;;19.29;97.72
31681;BME280;18281;51.364;9.566;2023-05-21T12:14:43;99867.09;;;19.43;98.13
31681;BME280;18281;51.364;9.566;2023-05-21T12:17:09;99869.75;;;19.43;99.43
31681;BME280;18281;51.364;9.566;2023-05-21T12:19:37;99864.22;;;19.65;97.40
31681;BME280;18281;51.364;9.566;2023-05-21T12:22:03;99865.22;;;19.64;96.49
31681;BME280;18281;51.364;9.566;2023-05-21T12:24:33;99870.63;;;19.72;94.65
31681;BME280;18281;51.364;9.566;2023-05-21T12:27:00;99870.97;;;19.87;92.96
31681;BME280;18281;51.364;9.566;2023-05-21T12:29:30;99872.03;;;19.94;92.39
31681;BME280;18281;51.364;9.566;2023-05-21T12:32:00;99874.84;;;19.92;88.25
31681;BME280;18281;51.364;9.566;2023-05-21T12:37:25;99864.66;;;20.06;86.33
31681;BME280;18281;51.364;9.566;2023-05-21T12:39:53;99875.03;;;20.09;87.62
31681;BME280;18281;51.364;9.566;2023-05-21T12:42:26;99867.13;;;20.17;86.21
31681;BME280;18281;51.364;9.566;2023-05-21T12:44:52;99862.63;;;20.18;85.69
31681;BME280;18281;51.364;9.566;2023-05-21T12:47:22;99860.88;;;20.26;86.49
31681;BME280;18281;51.364;9.566;2023-05-21T12:49:48;99853.56;;;20.29;86.75
31681;BME280;18281;51.364;9.566;2023-05-21T12:52:16;99850.31;;;20.35;87.00
31681;BME280;18281;51.364;9.566;2023-05-21T12:54:45;99848.47;;;20.35;85.89
31681;BME280;18281;51.364;9.566;2023-05-21T12:57:14;99841.69;;;20.59;84.39
31681;BME280;18281;51.364;9.566;2023-05-21T12:59:44;99844.13;;;20.52;86.42
31681;BME280;18281;51.364;9.566;2023-05-21T13:02:13;99834.97;;;20.55;85.94
31681;BME280;18281;51.364;9.566;2023-05-21T13:04:39;99834.06;;;20.46;85.41
31681;BME280;18281;51.364;9.566;2023-05-21T13:07:05;99834.72;;;20.66;86.92
31681;BME280;18281;51.364;9.566;2023-05-21T13:09:30;99833.53;;;20.60;85.63
31681;BME280;18281;51.364;9.566;2023-05-21T13:11:55;99829.91;;;20.70;86.56
31681;BME280;18281;51.364;9.566;2023-05-21T13:14:20;99833.94;;;20.74;86.88
31681;BME280;18281;51.364;9.566;2023-05-21T13:16:46;99835.16;;;20.80;87.61
31681;BME280;18281;51.364;9.566;2023-05-21T13:19:11;99834.69;;;20.84;87.15
31681;BME280;18281;51.364;9.566;2023-05-21T13:21:39;99821.66;;;20.81;84.44